Time;durP1;ratioP1;P1;durP2;ratioP2;P2;SDS_P1;SDS_P2;PMS_P1;PMS_P2;Temp;Humidity;BMP_temperature;BMP_pressure;BME280_temperature;BME280_humidity;BME280_pressure;Samples;Min_cycle;Max_cycle;Signal;HPM_P1;HPM_P2
2022/06/11 00:01:40;;;;;;;12.05;5.90;;;17.10;99.90;;;;;;4973368;28;20056;-88
2022/06/11 00:04:13;;;;;;;9.77;4.45;;;17.10;99.90;;;;;;4972796;28;20046;-88
2022/06/11 00:06:57;;;;;;;9.13;4.30;;;17.10;99.90;;;;;;4973462;28;20042;-88
2022/06/11 00:09:26;;;;;;;9.95;4.75;;;17.10;99.90;;;;;;4973291;28;20051;-88
2022/06/11 00:11:53;;;;;;;13.55;4.78;;;17.10;99.90;;;;;;4976093;28;20046;-89
2022/06/11 00:14:23;;;;;;;8.25;4.00;;;17.10;99.90;;;;;;4976561;28;20043;-88
2022/06/11 00:16:49;;;;;;;11.85;4.80;;;17.00;99.90;;;;;;4977885;28;20046;-89
2022/06/11 00:19:15;;;;;;;8.32;4.45;;;17.00;99.90;;;;;;4976737;28;20486;-89
2022/06/11 00:21:45;;;;;;;11.35;5.05;;;16.90;99.90;;;;;;4977660;28;20050;-88
2022/06/11 00:24:14;;;;;;;10.80;5.38;;;16.90;99.90;;;;;;4977343;28;20050;-89
2022/06/11 00:26:43;;;;;;;9.43;4.90;;;16.90;99.90;;;;;;4977959;28;20042;-89
2022/06/11 00:29:14;;;;;;;9.10;5.13;;;16.90;99.90;;;;;;4976551;28;20056;-89
2022/06/11 00:31:41;;;;;;;13.13;4.78;;;16.90;99.90;;;;;;4977821;28;20050;-89
2022/06/11 00:34:07;;;;;;;12.32;4.53;;;16.80;99.90;;;;;;4976968;28;20100;-88
2022/06/11 00:36:43;;;;;;;12.52;4.88;;;16.80;99.90;;;;;;4977070;28;20421;-89
2022/06/11 00:39:09;;;;;;;12.63;4.90;;;16.70;99.90;;;;;;4977018;28;20043;-89
2022/06/11 00:41:38;;;;;;;11.48;5.20;;;16.60;99.90;;;;;;4977595;28;20042;-89
2022/06/11 00:44:10;;;;;;;11.45;6.10;;;16.50;99.90;;;;;;4976420;28;20085;-88
2022/06/11 00:46:48;;;;;;;10.75;6.15;;;16.50;99.90;;;;;;4983947;28;20527;-89
2022/06/11 00:49:31;;;;;;;13.18;6.78;;;16.50;99.90;;;;;;4979463;28;20286;-89
2022/06/11 00:52:14;;;;;;;10.32;5.70;;;16.50;99.90;;;;;;5015386;28;20112;-89
2022/06/11 00:54:41;;;;;;;;;;;16.40;99.90;;;;;;4980528;28;20141;-89
2022/06/11 00:57:45;;;;;;;12.93;4.40;;;16.10;99.90;;;;;;4979314;28;20377;-89
2022/06/11 01:00:17;;;;;;;9.43;3.83;;;16.30;99.90;;;;;;5012597;28;20049;-89
2022/06/11 01:02:44;;;;;;;9.95;3.30;;;16.20;99.90;;;;;;4997047;28;20042;-89
2022/06/11 01:05:17;;;;;;;15.32;3.03;;;16.10;99.90;;;;;;4994935;28;20508;-89
2022/06/11 01:08:14;;;;;;;12.50;3.20;;;15.90;99.90;;;;;;4996799;28;20054;-89
2022/06/11 01:10:49;;;;;;;11.48;3.08;;;16.00;99.90;;;;;;4979377;28;20053;-89
2022/06/11 01:13:44;;;;;;;11.10;3.45;;;16.00;99.90;;;;;;4979996;28;20045;-89
2022/06/11 01:16:17;;;;;;;14.85;2.90;;;15.90;99.90;;;;;;4995732;28;20042;-88
2022/06/11 01:19:10;;;;;;;14.02;3.10;;;15.90;99.90;;;;;;4979740;28;20046;-89
2022/06/11 01:21:48;;;;;;;10.23;2.80;;;15.70;99.90;;;;;;4996032;28;20057;-89
2022/06/11 01:24:21;;;;;;;8.68;2.50;;;15.90;99.90;;;;;;4958586;28;20046;-89
2022/06/11 01:27:29;;;;;;;13.00;2.60;;;15.70;99.90;;;;;;4960864;28;20150;-88
2022/06/11 01:30:08;;;;;;;11.13;2.60;;;15.60;99.90;;;;;;4976726;28;20042;-88
2022/06/11 01:32:41;;;;;;;15.02;2.42;;;15.60;99.90;;;;;;4976038;28;20039;-88
2022/06/11 01:35:27;;;;;;;12.98;2.38;;;15.50;99.90;;;;;;4975917;28;20046;-89
2022/06/11 01:37:57;;;;;;;11.18;2.30;;;15.50;99.90;;;;;;4976134;28;20069;-89
2022/06/11 01:40:35;;;;;;;13.02;2.35;;;15.50;99.90;;;;;;4958741;28;20054;-89
2022/06/11 01:43:23;;;;;;;12.88;2.20;;;15.40;99.90;;;;;;4959751;28;20043;-88
2022/06/11 01:45:52;;;;;;;17.38;2.85;;;15.40;99.90;;;;;;4975859;28;20369;-89
2022/06/11 01:48:25;;;;;;;12.02;1.92;;;15.40;99.90;;;;;;4975946;28;20113;-89
2022/06/11 01:50:54;;;;;;;;;;;15.30;99.90;;;;;;4975752;28;20482;-89
2022/06/11 01:53:38;;;;;;;12.73;2.30;;;15.30;99.90;;;;;;4971618;28;20385;-89
2022/06/11 01:56:32;;;;;;;15.13;2.58;;;15.20;99.90;;;;;;4972267;28;20129;-88
2022/06/11 01:59:12;;;;;;;10.75;2.05;;;15.10;99.90;;;;;;4956789;28;20125;-88
2022/06/11 02:01:49;;;;;;;10.18;2.55;;;15.00;99.90;;;;;;4972580;28;20141;-89
2022/06/11 02:04:31;;;;;;;9.00;1.65;;;14.90;99.90;;;;;;4971643;28;20050;-89
2022/06/11 02:07:20;;;;;;;9.57;2.22;;;14.80;99.90;;;;;;4971635;28;20082;-88
2022/06/11 02:10:20;;;;;;;14.82;2.40;;;14.80;99.90;;;;;;4972476;28;20148;-89
2022/06/11 02:12:58;;;;;;;13.82;2.53;;;14.70;99.90;;;;;;4972316;28;20046;-89
2022/06/11 02:15:28;;;;;;;16.77;2.95;;;14.60;99.90;;;;;;4971564;28;20129;-89
2022/06/11 02:17:59;;;;;;;12.32;2.03;;;14.60;99.90;;;;;;4972447;28;20039;-89
2022/06/11 02:20:40;;;;;;;14.95;2.65;;;14.50;99.90;;;;;;5015806;23;20555;-88
2022/06/11 02:23:11;;;;;;;12.43;2.45;;;14.50;99.90;;;;;;5014320;28;20503;-89
2022/06/11 02:25:42;;;;;;;10.00;2.38;;;14.40;99.90;;;;;;5014560;28;20045;-89
2022/06/11 02:28:16;;;;;;;9.52;2.40;;;14.40;99.90;;;;;;5013359;28;20091;-89
2022/06/11 02:30:45;;;;;;;17.33;2.63;;;14.40;99.90;;;;;;5014733;28;20045;-89
2022/06/11 02:33:14;;;;;;;13.45;2.35;;;14.40;99.90;;;;;;5014582;28;20045;-88
2022/06/11 02:35:56;;;;;;;13.05;2.80;;;14.40;99.90;;;;;;5012637;28;20045;-89
2022/06/11 02:38:25;;;;;;;15.40;2.72;;;14.30;99.90;;;;;;5013962;28;20119;-88
2022/06/11 02:40:57;;;;;;;13.27;2.53;;;14.30;99.90;;;;;;5014386;28;20504;-88
2022/06/11 02:43:27;;;;;;;19.65;2.20;;;14.30;99.90;;;;;;5013799;28;20111;-89
2022/06/11 02:45:53;;;;;;;13.73;2.67;;;14.20;99.90;;;;;;5014080;28;20087;-89
2022/06/11 02:48:20;;;;;;;15.02;2.55;;;14.20;99.90;;;;;;5029762;28;20045;-88
2022/06/11 02:50:46;;;;;;;15.07;2.70;;;14.20;99.90;;;;;;5029995;28;20052;-89
2022/06/11 02:53:14;;;;;;;17.27;2.60;;;14.20;99.90;;;;;;5030482;28;20057;-88
2022/06/11 02:55:40;;;;;;;12.18;3.15;;;14.20;99.90;;;;;;5029971;28;20045;-88
2022/06/11 02:58:09;;;;;;;11.35;2.80;;;14.20;99.90;;;;;;5030615;28;20045;-88
2022/06/11 03:00:44;;;;;;;12.45;2.45;;;14.20;99.90;;;;;;5031388;28;20053;-88
2022/06/11 03:03:10;;;;;;;12.63;2.78;;;14.20;99.90;;;;;;5030691;28;20587;-88
2022/06/11 03:05:38;;;;;;;13.50;3.03;;;14.10;99.90;;;;;;5029923;28;20136;-89
2022/06/11 03:08:05;;;;;;;12.02;2.22;;;14.10;99.90;;;;;;5029546;28;20052;-88
2022/06/11 03:10:38;;;;;;;12.70;2.85;;;14.10;99.90;;;;;;5028969;28;20547;-89
2022/06/11 03:13:04;;;;;;;13.73;2.80;;;14.00;99.90;;;;;;5029496;28;20053;-88
2022/06/11 03:15:36;;;;;;;11.38;2.90;;;13.90;99.90;;;;;;5030099;28;20092;-89
2022/06/11 03:18:08;;;;;;;11.00;2.53;;;13.60;99.90;;;;;;5029285;28;20266;-89
2022/06/11 03:20:34;;;;;;;12.32;2.72;;;13.70;99.90;;;;;;5029129;28;20057;-88
2022/06/11 03:23:09;;;;;;;10.90;2.50;;;13.70;99.90;;;;;;5029526;28;20054;-88
2022/06/11 03:25:35;;;;;;;13.50;2.85;;;13.70;99.90;;;;;;5012802;28;20044;-89
2022/06/11 03:28:10;;;;;;;11.27;2.40;;;13.70;99.90;;;;;;5013019;28;20049;-88
2022/06/11 03:30:41;;;;;;;11.27;2.58;;;13.80;99.90;;;;;;5012403;28;20076;-89
2022/06/11 03:33:13;;;;;;;10.35;2.55;;;13.70;99.90;;;;;;5013511;28;20048;-89
2022/06/11 03:35:41;;;;;;;12.00;2.65;;;13.70;99.90;;;;;;5012785;28;20100;-89
2022/06/11 03:38:08;;;;;;;10.25;2.55;;;13.70;99.90;;;;;;5013234;28;20041;-89
2022/06/11 03:40:34;;;;;;;9.32;2.28;;;13.60;99.90;;;;;;5012903;28;20613;-88
2022/06/11 03:43:09;;;;;;;10.50;2.45;;;13.60;99.90;;;;;;5014057;28;20041;-88
2022/06/11 03:45:43;;;;;;;10.88;2.30;;;13.50;99.90;;;;;;5012295;28;20049;-88
2022/06/11 03:48:09;;;;;;;11.18;2.25;;;13.50;99.90;;;;;;5012859;28;20501;-88
2022/06/11 03:50:38;;;;;;;12.57;2.65;;;13.40;99.90;;;;;;5012814;28;20087;-88
2022/06/11 03:53:09;;;;;;;14.63;2.70;;;13.50;99.90;;;;;;5012456;28;20076;-87
2022/06/11 03:55:36;;;;;;;18.58;3.13;;;13.50;99.90;;;;;;5013368;28;20049;-88
2022/06/11 03:58:03;;;;;;;15.13;3.60;;;13.60;99.90;;;;;;5010080;28;20046;-88
2022/06/11 04:03:20;;;;;;;13.85;3.60;;;13.70;99.90;;;;;;5009621;28;20089;-88
2022/06/11 04:05:49;;;;;;;15.38;3.70;;;13.70;99.90;;;;;;5008014;28;20139;-88
2022/06/11 04:08:16;;;;;;;18.60;3.75;;;13.90;99.90;;;;;;5009629;28;20046;-88
2022/06/11 04:10:53;;;;;;;18.08;3.28;;;14.00;99.90;;;;;;5009811;28;20042;-88
2022/06/11 04:13:20;;;;;;;18.10;3.60;;;13.90;99.90;;;;;;5008945;28;20038;-89
2022/06/11 04:15:52;;;;;;;15.43;3.63;;;14.10;99.90;;;;;;5009580;28;20038;-89
2022/06/11 04:18:33;;;;;;;13.40;3.60;;;14.20;99.90;;;;;;5009526;28;20042;-88
2022/06/11 04:21:01;;;;;;;12.00;3.47;;;14.30;99.90;;;;;;5008451;28;20057;-88
2022/06/11 04:23:29;;;;;;;15.00;3.80;;;14.30;99.90;;;;;;5009450;28;20038;-88
2022/06/11 04:26:00;;;;;;;15.60;3.70;;;14.40;99.90;;;;;;5009719;28;20046;-88
2022/06/11 04:28:30;;;;;;;20.10;4.43;;;14.40;99.90;;;;;;5008390;28;20100;-88
2022/06/11 04:30:58;;;;;;;20.98;4.40;;;14.50;99.90;;;;;;5009229;28;20042;-86
2022/06/11 04:33:23;;;;;;;15.35;2.90;;;14.50;99.90;;;;;;5008989;28;20113;-87
2022/06/11 04:35:49;;;;;;;16.52;3.40;;;14.60;99.90;;;;;;5007952;28;20144;-87
2022/06/11 04:38:18;;;;;;;13.27;3.10;;;14.60;99.90;;;;;;5008932;28;20133;-87
2022/06/11 04:40:45;;;;;;;15.90;3.13;;;14.70;99.90;;;;;;5008689;28;20060;-88
2022/06/11 04:43:11;;;;;;;17.98;3.10;;;14.80;99.90;;;;;;5007862;28;20054;-87
2022/06/11 04:45:37;;;;;;;17.30;3.20;;;14.90;99.90;;;;;;5009959;28;20050;-88
2022/06/11 04:48:03;;;;;;;18.30;3.45;;;14.90;99.90;;;;;;5011294;28;20054;-88
2022/06/11 04:50:29;;;;;;;16.85;3.17;;;15.00;99.90;;;;;;5027949;28;20076;-88
2022/06/11 04:52:55;;;;;;;17.05;3.53;;;15.00;99.90;;;;;;5028832;28;20099;-88
2022/06/11 04:55:21;;;;;;;25.42;3.78;;;15.10;99.90;;;;;;5027039;28;20041;-88
2022/06/11 04:57:47;;;;;;;17.88;3.88;;;15.10;99.90;;;;;;5029037;28;20053;-87
2022/06/11 05:00:18;;;;;;;24.33;4.28;;;15.20;99.90;;;;;;5031715;28;20103;-88
2022/06/11 05:02:45;;;;;;;20.23;3.75;;;15.30;99.90;;;;;;5032015;28;20045;-88
2022/06/11 05:05:12;;;;;;;16.83;3.33;;;15.40;99.90;;;;;;5030939;28;20087;-88
2022/06/11 05:07:38;;;;;;;19.33;3.50;;;15.40;99.90;;;;;;5032410;28;20041;-88
2022/06/11 05:10:05;;;;;;;19.67;3.55;;;15.50;99.90;;;;;;5031025;28;20072;-88
2022/06/11 05:12:30;;;;;;;17.10;3.40;;;15.60;99.90;;;;;;5032140;28;20068;-87
2022/06/11 05:14:56;;;;;;;20.63;4.10;;;15.60;99.90;;;;;;5032019;28;20084;-88
2022/06/11 05:17:22;;;;;;;19.27;3.70;;;15.70;99.90;;;;;;5030506;28;20382;-87
2022/06/11 05:19:48;;;;;;;17.02;3.30;;;15.80;99.90;;;;;;5030747;28;20045;-87
2022/06/11 05:22:15;;;;;;;17.25;3.88;;;15.80;99.90;;;;;;5012094;28;20053;-88
2022/06/11 05:24:40;;;;;;;24.27;3.60;;;16.10;99.90;;;;;;5021731;28;20095;-88
2022/06/11 05:27:17;;;;;;;17.75;3.30;;;16.00;99.90;;;;;;5004072;28;20042;-88
2022/06/11 05:29:44;;;;;;;20.55;3.92;;;16.10;99.90;;;;;;5003573;28;20048;-87
2022/06/11 05:32:33;;;;;;;19.52;3.45;;;16.10;99.90;;;;;;5025955;28;20042;-88
2022/06/11 05:35:00;;;;;;;21.90;3.95;;;16.20;99.90;;;;;;5002758;28;20164;-87
2022/06/11 05:37:27;;;;;;;20.67;3.95;;;16.30;99.90;;;;;;5005553;28;20033;-87
2022/06/11 05:39:53;;;;;;;17.90;3.63;;;16.30;99.90;;;;;;5004025;28;20045;-87
2022/06/11 05:42:22;;;;;;;26.92;4.47;;;16.40;99.90;;;;;;5005689;28;20136;-87
2022/06/11 05:44:48;;;;;;;23.35;4.88;;;16.00;99.90;;;;;;5005306;28;20500;-87
2022/06/11 05:47:16;;;;;;;19.48;3.55;;;16.50;99.90;;;;;;5004537;28;20049;-87
2022/06/11 05:49:45;;;;;;;21.08;4.38;;;16.60;99.90;;;;;;5005050;28;20072;-87
2022/06/11 05:52:16;;;;;;;23.60;4.82;;;16.60;99.90;;;;;;5003477;28;20042;-87
2022/06/11 05:54:50;;;;;;;22.05;4.97;;;16.70;99.90;;;;;;5000502;28;20043;-87
2022/06/11 05:57:23;;;;;;;21.55;4.47;;;16.70;99.90;;;;;;5006013;28;20049;-87
2022/06/11 05:59:54;;;;;;;22.88;4.60;;;16.80;99.90;;;;;;5028165;28;20042;-88
2022/06/11 06:02:22;;;;;;;21.75;4.60;;;16.80;99.90;;;;;;5003069;28;20469;-88
2022/06/11 06:04:48;;;;;;;22.38;4.40;;;16.90;99.90;;;;;;5027877;28;20037;-87
2022/06/11 06:07:14;;;;;;;31.35;5.45;;;17.00;99.90;;;;;;5002268;28;20052;-87
2022/06/11 06:09:42;;;;;;;20.02;4.75;;;17.00;99.90;;;;;;5009168;28;20111;-87
2022/06/11 06:12:14;;;;;;;23.80;4.47;;;17.00;99.90;;;;;;5026187;28;20041;-87
2022/06/11 06:14:40;;;;;;;25.17;5.00;;;17.10;99.90;;;;;;5020104;28;20115;-87
2022/06/11 06:17:06;;;;;;;25.40;4.88;;;17.10;99.90;;;;;;5002869;28;20046;-87
2022/06/11 06:19:34;;;;;;;29.33;5.00;;;17.20;99.90;;;;;;4999926;28;20066;-88
2022/06/11 06:22:04;;;;;;;27.35;4.70;;;17.30;99.90;;;;;;4995793;28;20053;-87
2022/06/11 06:24:31;;;;;;;89.20;8.27;;;17.30;99.90;;;;;;4995268;28;20580;-87
2022/06/11 06:26:57;;;;;;;22.38;4.25;;;17.40;99.90;;;;;;4995555;28;20046;-88
2022/06/11 06:29:23;;;;;;;25.50;6.18;;;17.50;99.90;;;;;;4994630;28;20102;-88
2022/06/11 06:31:49;;;;;;;28.00;5.90;;;17.50;99.90;;;;;;4995829;28;20046;-88
2022/06/11 06:34:15;;;;;;;27.42;5.85;;;17.60;99.90;;;;;;4994983;28;20049;-88
2022/06/11 06:36:41;;;;;;;31.17;6.43;;;17.50;99.90;;;;;;5008231;28;20038;-88
2022/06/11 06:39:16;;;;;;;33.05;6.80;;;17.50;99.90;;;;;;5013680;28;20048;-87
2022/06/11 06:41:42;;;;;;;28.65;5.45;;;17.60;99.90;;;;;;5013686;28;20077;-88
2022/06/11 06:44:07;;;;;;;33.25;5.50;;;17.70;99.90;;;;;;5029088;28;20542;-87
2022/06/11 06:46:33;;;;;;;30.52;5.22;;;17.80;99.90;;;;;;5020599;28;20151;-88
2022/06/11 06:48:59;;;;;;;31.27;5.45;;;17.80;99.90;;;;;;5009395;28;20059;-87
2022/06/11 06:51:25;;;;;;;28.58;5.80;;;17.90;99.90;;;;;;5010049;28;20081;-88
2022/06/11 06:53:50;;;;;;;32.80;5.93;;;18.00;99.90;;;;;;5008611;28;20500;-89
2022/06/11 06:56:20;;;;;;;31.13;5.43;;;18.00;99.90;;;;;;5008068;28;20057;-87
2022/06/11 06:58:46;;;;;;;25.00;5.63;;;18.00;99.90;;;;;;5010986;28;20042;-89
2022/06/11 07:01:21;;;;;;;30.15;5.22;;;18.10;99.90;;;;;;5006055;28;20127;-87
2022/06/11 07:03:47;;;;;;;25.23;5.43;;;18.10;99.90;;;;;;5021070;28;20140;-89
2022/06/11 07:06:12;;;;;;;26.60;5.05;;;18.20;99.90;;;;;;4998917;28;20086;-90
2022/06/11 07:08:44;;;;;;;29.77;5.88;;;18.30;99.90;;;;;;4999936;28;20124;-85
2022/06/11 07:11:12;;;;;;;27.83;5.20;;;18.30;99.90;;;;;;5007360;28;20057;-87
2022/06/11 07:13:38;;;;;;;29.63;4.95;;;18.40;99.90;;;;;;5004715;28;20046;-88
2022/06/11 07:16:04;;;;;;;28.75;5.18;;;18.40;99.90;;;;;;5018251;28;20379;-88
2022/06/11 07:18:53;;;;;;;29.35;5.57;;;18.50;99.90;;;;;;4993626;28;20120;-88
2022/06/11 07:21:37;;;;;;;18.88;5.00;;;18.60;99.90;;;;;;5004739;28;20057;-87
2022/06/11 07:24:10;;;;;;;25.38;4.75;;;18.70;99.90;;;;;;5010500;28;20493;-88
2022/06/11 07:26:41;;;;;;;27.83;5.20;;;18.70;99.90;;;;;;5027902;28;20056;-88
2022/06/11 07:29:34;;;;;;;29.48;5.18;;;18.70;99.90;;;;;;5013149;28;20041;-88
2022/06/11 07:32:04;;;;;;;26.48;5.97;;;18.80;99.90;;;;;;5008306;28;20049;-87
2022/06/11 07:34:31;;;;;;;27.50;4.93;;;18.90;99.90;;;;;;5010189;28;20049;-88
2022/06/11 07:36:58;;;;;;;27.83;6.13;;;18.90;99.90;;;;;;5024264;28;20042;-86
2022/06/11 07:39:26;;;;;;;25.58;5.55;;;19.10;99.90;;;;;;5011069;28;20045;-87
2022/06/11 07:41:52;;;;;;;34.33;5.75;;;19.20;99.90;;;;;;5009189;28;20061;-86
2022/06/11 07:44:18;;;;;;;31.92;6.10;;;19.30;99.90;;;;;;4993477;28;20041;-86
2022/06/11 07:46:55;;;;;;;29.23;5.40;;;19.30;99.90;;;;;;5007732;28;20081;-87
2022/06/11 07:49:21;;;;;;;32.22;5.72;;;19.50;99.90;;;;;;5001452;28;20053;-87
2022/06/11 07:51:51;;;;;;;25.17;5.85;;;19.60;99.90;;;;;;5026872;28;20049;-87
2022/06/11 07:54:17;;;;;;;26.70;5.22;;;19.60;99.90;;;;;;5011743;28;20041;-87
2022/06/11 07:56:43;;;;;;;27.75;5.68;;;19.60;99.90;;;;;;5027311;28;20049;-86
2022/06/11 07:59:09;;;;;;;32.70;5.05;;;19.80;99.90;;;;;;5021499;28;20099;-88
2022/06/11 08:01:35;;;;;;;26.67;5.15;;;19.70;99.90;;;;;;5011969;28;20530;-87
2022/06/11 08:04:00;;;;;;;30.63;5.05;;;19.90;99.90;;;;;;5009874;28;20041;-88
2022/06/11 08:06:26;;;;;;;24.33;4.32;;;20.00;99.90;;;;;;5008031;28;20041;-87
2022/06/11 08:08:55;;;;;;;24.02;4.57;;;20.10;99.90;;;;;;5008137;28;20452;-87
2022/06/11 08:11:21;;;;;;;27.35;4.78;;;20.00;99.90;;;;;;5008709;28;20033;-88
2022/06/11 08:13:47;;;;;;;21.63;4.18;;;19.90;99.90;;;;;;5011921;28;20057;-87
2022/06/11 08:16:13;;;;;;;25.30;4.53;;;19.90;99.90;;;;;;5024766;28;20124;-86
2022/06/11 08:18:40;;;;;;;24.35;4.70;;;19.80;99.90;;;;;;5029236;28;20107;-87
2022/06/11 08:21:18;;;;;;;25.67;5.55;;;19.90;99.90;;;;;;5008677;28;20397;-88
2022/06/11 08:23:45;;;;;;;23.33;4.50;;;19.90;99.90;;;;;;5028815;28;20056;-87
2022/06/11 08:26:11;;;;;;;25.95;4.63;;;19.90;99.90;;;;;;5024566;28;20108;-87
2022/06/11 08:28:37;;;;;;;28.40;4.70;;;20.00;99.90;;;;;;5011828;28;20041;-88
2022/06/11 08:31:04;;;;;;;24.60;4.63;;;20.00;99.90;;;;;;5026818;28;20120;-87
2022/06/11 08:33:32;;;;;;;25.83;5.07;;;20.00;99.90;;;;;;5029260;28;20077;-88
2022/06/11 08:36:03;;;;;;;24.52;4.35;;;20.00;99.90;;;;;;5014900;28;20081;-88
2022/06/11 08:38:38;;;;;;;22.83;4.60;;;20.10;99.90;;;;;;5029215;28;20459;-88
2022/06/11 08:41:13;;;;;;;26.35;5.22;;;20.30;99.90;;;;;;4998880;28;20049;-87
2022/06/11 08:43:43;;;;;;;23.40;4.75;;;20.40;99.90;;;;;;5032278;28;20080;-87
2022/06/11 08:46:14;;;;;;;24.33;5.10;;;20.50;99.90;;;;;;5015484;28;20071;-89
2022/06/11 08:48:45;;;;;;;25.15;4.47;;;20.60;99.90;;;;;;5015533;28;20504;-88
2022/06/11 08:51:18;;;;;;;33.20;5.50;;;20.70;99.90;;;;;;5027038;28;20091;-87
2022/06/11 08:53:44;;;;;;;22.70;4.65;;;20.70;99.90;;;;;;5014724;28;20052;-88
2022/06/11 08:56:31;;;;;;;24.58;4.75;;;20.80;99.90;;;;;;5013614;28;20051;-87
2022/06/11 08:59:23;;;;;;;30.25;4.93;;;20.90;99.90;;;;;;4996495;28;20058;-83
2022/06/11 09:02:09;;;;;;;22.83;4.70;;;21.10;99.90;;;;;;5010209;28;20041;-83
2022/06/11 09:04:59;;;;;;;28.83;5.47;;;21.20;99.90;;;;;;5028885;28;20082;-83
2022/06/11 09:07:37;;;;;;;27.50;5.07;;;21.20;99.90;;;;;;4994010;28;20324;-84
2022/06/11 09:10:25;;;;;;;23.95;3.88;;;21.10;99.90;;;;;;5014797;28;20435;-82
2022/06/11 09:13:10;;;;;;;27.85;4.82;;;21.20;99.90;;;;;;5030459;28;20045;-83
2022/06/11 09:15:53;;;;;;;24.17;4.20;;;21.30;99.90;;;;;;5013018;28;20398;-83
2022/06/11 09:18:27;;;;;;;18.27;3.80;;;21.40;99.90;;;;;;5030196;28;20045;-83
2022/06/11 09:21:05;;;;;;;27.08;4.30;;;21.50;99.90;;;;;;5029217;28;20057;-82
2022/06/11 09:23:37;;;;;;;18.67;3.92;;;21.60;99.90;;;;;;5002814;28;20046;-83
2022/06/11 09:26:41;;;;;;;17.98;3.80;;;21.70;99.90;;;;;;4999083;28;20125;-82
2022/06/11 09:29:11;;;;;;;;;;;21.80;99.90;;;;;;4993819;28;20050;-83
2022/06/11 09:31:46;;;;;;;16.73;2.95;;;21.70;99.90;;;;;;5008677;28;19931;-83
2022/06/11 09:34:18;;;;;;;24.08;4.20;;;21.60;99.90;;;;;;5010478;28;20618;-83
2022/06/11 09:36:55;;;;;;;22.42;4.80;;;21.40;99.90;;;;;;5029022;28;20049;-83
2022/06/11 09:39:29;;;;;;;23.27;4.22;;;21.40;99.90;;;;;;5029314;28;20056;-83
2022/06/11 09:42:04;;;;;;;20.98;3.30;;;21.40;99.90;;;;;;5028873;28;20064;-83
2022/06/11 09:44:43;;;;;;;21.35;4.05;;;21.60;99.90;;;;;;5016969;28;20409;-83
2022/06/11 09:47:22;;;;;;;20.10;4.20;;;21.80;99.90;;;;;;5028252;28;20052;-83
2022/06/11 09:49:48;;;;;;;22.85;3.75;;;22.00;99.90;;;;;;5041026;28;20393;-82
2022/06/11 09:52:23;;;;;;;16.02;3.45;;;22.00;99.90;;;;;;5028415;28;20434;-82
2022/06/11 09:54:54;;;;;;;21.17;3.67;;;22.00;99.90;;;;;;5029509;28;20138;-82
2022/06/11 09:57:36;;;;;;;19.95;3.30;;;21.90;99.90;;;;;;5013099;28;20049;-82
2022/06/11 10:00:18;;;;;;;15.00;2.70;;;21.90;99.90;;;;;;5029827;28;20073;-82
2022/06/11 10:02:58;;;;;;;14.93;3.38;;;21.90;99.90;;;;;;5013224;28;20054;-82
2022/06/11 10:05:36;;;;;;;14.70;2.80;;;22.00;99.90;;;;;;5011812;28;20044;-82
2022/06/11 10:08:16;;;;;;;18.20;3.42;;;22.10;99.90;;;;;;5029662;28;20517;-82
2022/06/11 10:10:45;;;;;;;16.13;3.13;;;22.20;99.90;;;;;;5013054;28;20045;-81
2022/06/11 10:13:24;;;;;;;16.92;3.45;;;22.20;99.90;;;;;;5010538;28;20564;-83
2022/06/11 10:15:50;;;;;;;21.95;3.58;;;22.30;99.90;;;;;;5019714;28;20045;-82
2022/06/11 10:18:28;;;;;;;13.48;2.88;;;22.20;99.90;;;;;;5011456;28;20037;-82
2022/06/11 10:21:04;;;;;;;15.77;3.53;;;22.00;99.90;;;;;;5020804;28;20584;-82
2022/06/11 10:23:40;;;;;;;18.00;3.70;;;21.80;99.90;;;;;;5008925;28;20038;-81
2022/06/11 10:26:15;;;;;;;16.02;3.30;;;21.60;99.90;;;;;;5027851;28;20045;-81
2022/06/11 10:28:44;;;;;;;17.42;3.05;;;21.50;99.90;;;;;;5025861;28;20078;-82
2022/06/11 10:31:22;;;;;;;21.45;3.20;;;21.40;99.90;;;;;;5027706;28;20425;-82
2022/06/11 10:33:55;;;;;;;15.82;2.65;;;21.20;99.90;;;;;;5023351;28;20107;-82
2022/06/11 10:36:35;;;;;;;19.13;2.92;;;21.00;99.90;;;;;;5029664;28;20053;-81
2022/06/11 10:39:11;;;;;;;15.25;2.78;;;21.00;99.90;;;;;;5028508;28;20041;-82
2022/06/11 10:41:51;;;;;;;16.35;3.53;;;21.20;99.90;;;;;;5027098;28;20041;-82
2022/06/11 10:44:35;;;;;;;12.43;2.88;;;21.40;99.90;;;;;;5010274;28;20129;-82
2022/06/11 10:47:10;;;;;;;13.05;2.42;;;21.60;99.90;;;;;;5011751;28;20388;-82
2022/06/11 10:49:36;;;;;;;17.77;4.03;;;21.80;99.90;;;;;;5010451;28;20053;-81
2022/06/11 10:52:08;;;;;;;19.70;2.75;;;22.00;99.90;;;;;;5028643;28;20037;-82
2022/06/11 10:54:34;;;;;;;;;;;22.20;99.90;;;;;;5011162;28;20087;-82
2022/06/11 10:57:07;;;;;;;18.90;3.22;;;22.30;99.90;;;;;;5008031;28;19921;-82
2022/06/11 10:59:42;;;;;;;18.23;3.15;;;22.50;99.90;;;;;;5011407;28;20527;-82
2022/06/11 11:02:24;;;;;;;19.35;3.67;;;22.50;99.90;;;;;;5011636;28;20045;-87
2022/06/11 11:04:58;;;;;;;14.80;3.08;;;22.50;99.90;;;;;;5027678;28;20405;-87
2022/06/11 11:07:24;;;;;;;14.90;2.47;;;22.40;99.90;;;;;;5029692;28;20054;-87
2022/06/11 11:09:56;;;;;;;12.23;2.80;;;22.40;99.90;;;;;;5011524;28;20132;-87
2022/06/11 11:12:29;;;;;;;15.98;3.17;;;22.40;99.90;;;;;;5012907;28;20048;-87
2022/06/11 11:15:02;;;;;;;17.10;3.40;;;22.40;99.90;;;;;;5010875;28;20056;-81
2022/06/11 11:17:29;;;;;;;;;;;22.40;99.90;;;;;;5028598;28;20081;-82
2022/06/11 11:20:30;;;;;;;16.70;2.90;;;22.50;99.90;;;;;;5026797;28;19921;-83
2022/06/11 11:23:09;;;;;;;15.00;2.75;;;22.50;99.90;;;;;;5010489;28;20052;-82
2022/06/11 11:25:39;;;;;;;16.85;2.85;;;22.50;99.90;;;;;;5027912;28;20056;-82
2022/06/11 11:28:14;;;;;;;11.93;2.60;;;22.60;99.90;;;;;;5027846;28;20049;-81
2022/06/11 11:30:40;;;;;;;14.80;2.70;;;22.60;99.90;;;;;;5010321;28;20404;-82
2022/06/11 11:33:22;;;;;;;18.52;3.22;;;22.70;99.90;;;;;;5028224;28;20056;-81
2022/06/11 11:35:48;;;;;;;18.83;2.97;;;22.70;99.90;;;;;;5027175;28;20484;-81
2022/06/11 11:38:20;;;;;;;16.27;3.03;;;22.70;99.90;;;;;;5026562;28;20712;-82
2022/06/11 11:40:49;;;;;;;15.77;2.90;;;22.90;99.90;;;;;;5028199;28;20037;-81
2022/06/11 11:43:16;;;;;;;20.00;3.38;;;22.80;99.90;;;;;;5026664;28;20087;-81
2022/06/11 11:45:55;;;;;;;13.35;2.75;;;22.70;99.90;;;;;;5011250;28;20042;-81
2022/06/11 11:48:30;;;;;;;10.35;2.50;;;22.70;99.90;;;;;;5011521;28;20037;-81
2022/06/11 11:51:06;;;;;;;11.23;2.33;;;22.60;99.90;;;;;;5026296;28;20496;-81
2022/06/11 11:53:40;;;;;;;13.20;3.00;;;22.70;99.90;;;;;;5028118;28;20080;-81
2022/06/11 11:56:23;;;;;;;12.18;2.47;;;22.90;99.90;;;;;;5027609;28;20045;-81
2022/06/11 11:58:54;;;;;;;12.90;2.47;;;22.90;99.90;;;;;;5027442;28;20489;-83
2022/06/11 12:01:23;;;;;;;13.05;2.40;;;22.90;99.90;;;;;;5011264;28;20422;-82
2022/06/11 12:04:13;;;;;;;15.75;2.92;;;23.00;99.90;;;;;;5011130;28;20041;-81
2022/06/11 12:06:52;;;;;;;13.88;3.80;;;23.10;99.90;;;;;;5034480;28;20424;-82
2022/06/11 12:09:25;;;;;;;13.20;2.50;;;23.30;99.90;;;;;;5022679;28;20037;-81
2022/06/11 12:12:03;;;;;;;12.63;2.65;;;23.40;99.90;;;;;;5021355;28;20500;-82
2022/06/11 12:14:32;;;;;;;11.05;2.22;;;23.40;99.90;;;;;;5027409;28;20057;-82
2022/06/11 12:17:13;;;;;;;13.43;2.72;;;23.40;98.80;;;;;;5011033;28;20038;-82
2022/06/11 12:19:40;;;;;;;12.52;2.15;;;23.50;99.90;;;;;;5008986;28;20069;-81
2022/06/11 12:22:18;;;;;;;12.82;2.78;;;23.40;99.90;;;;;;5027846;28;20076;-81
2022/06/11 12:24:48;;;;;;;15.52;2.58;;;23.40;97.60;;;;;;5026684;28;20064;-82
2022/06/11 12:27:22;;;;;;;19.35;2.45;;;23.50;99.90;;;;;;5026259;28;20132;-82
2022/06/11 12:29:53;;;;;;;11.05;2.33;;;23.40;99.90;;;;;;5026918;28;20049;-82
2022/06/11 12:32:22;;;;;;;10.98;2.10;;;23.50;99.90;;;;;;5025917;28;20476;-82
2022/06/11 12:34:48;;;;;;;17.23;2.63;;;23.50;99.90;;;;;;5009066;28;20050;-82
2022/06/11 12:37:24;;;;;;;15.60;2.75;;;23.30;98.70;;;;;;5024975;28;20508;-82
2022/06/11 12:40:00;;;;;;;9.30;2.35;;;23.20;99.70;;;;;;5009945;28;20560;-82
2022/06/11 12:42:36;;;;;;;11.98;2.25;;;23.10;99.90;;;;;;5015857;28;20116;-82
2022/06/11 12:45:11;;;;;;;9.38;1.90;;;23.10;99.40;;;;;;5026447;28;20049;-82
2022/06/11 12:47:54;;;;;;;12.57;2.08;;;23.00;97.80;;;;;;4998551;28;20057;-81
2022/06/11 12:50:25;;;;;;;11.25;2.55;;;23.10;99.90;;;;;;5025532;28;20041;-82
2022/06/11 12:53:14;;;;;;;8.47;1.83;;;23.00;98.90;;;;;;5010323;28;20060;-82
2022/06/11 12:55:48;;;;;;;14.05;2.13;;;23.00;97.40;;;;;;5009566;28;20052;-82
2022/06/11 12:58:22;;;;;;;14.68;2.50;;;22.90;98.00;;;;;;5023864;28;20045;-82
2022/06/11 13:00:51;;;;;;;11.73;2.05;;;22.80;96.60;;;;;;5024176;28;20041;-82
2022/06/11 13:03:26;;;;;;;17.88;2.72;;;22.80;97.50;;;;;;5008755;28;20133;-83
2022/06/11 13:06:11;;;;;;;15.70;2.50;;;22.80;98.80;;;;;;5025646;28;20115;-82
2022/06/11 13:08:53;;;;;;;11.27;1.73;;;22.90;97.70;;;;;;5009547;28;20099;-82